Terminal Aerodrome Forecast
Issued by NWS

Home | Current Version | Previous Version | Text Only | Print | Product List | Glossary On
Versions: 1 2 3 4 5 6 7 8 9 10 11 12 13 14
000
FTUS43 KIND 210520
TAFLAF
TAF
KLAF 210520Z 2106/2206 VRB03KT P6SM VCTS BKN040CB BKN120
     FM210800 18004KT P6SM FEW040 SCT250
     FM211700 25007KT P6SM SCT040 BKN200
     FM211800 22008KT P6SM VCTS SCT040CB BKN200
      AMD LTD TO CLD VIS AND WIND TIL 211300=

USA.gov is the U.S. government's official web portal to all federal, state and local government web resources and services.